sensor_id;sensor_type;location;lat;lon;timestamp;pressure;altitude;pressure_sealevel;temperature;humidity
13348;BME280;6743;49.934;9.138;2022-12-07T00:00:54;100607.78;;;3.34;100.00
13348;BME280;6743;49.934;9.138;2022-12-07T00:03:21;100599.06;;;3.33;100.00
13348;BME280;6743;49.934;9.138;2022-12-07T00:05:47;100613.03;;;3.34;100.00
13348;BME280;6743;49.934;9.138;2022-12-07T00:08:13;100606.94;;;3.33;100.00
13348;BME280;6743;49.934;9.138;2022-12-07T00:10:40;100607.06;;;3.32;100.00
13348;BME280;6743;49.934;9.138;2022-12-07T00:13:06;100596.78;;;3.29;100.00
13348;BME280;6743;49.934;9.138;2022-12-07T00:15:33;100596.78;;;3.29;100.00
13348;BME280;6743;49.934;9.138;2022-12-07T00:18:00;100589.03;;;3.27;100.00
13348;BME280;6743;49.934;9.138;2022-12-07T00:20:26;100581.16;;;3.27;100.00
13348;BME280;6743;49.934;9.138;2022-12-07T00:22:52;100586.28;;;3.29;100.00
13348;BME280;6743;49.934;9.138;2022-12-07T00:25:18;100580.13;;;3.30;100.00
13348;BME280;6743;49.934;9.138;2022-12-07T00:27:44;100574.88;;;3.30;100.00
13348;BME280;6743;49.934;9.138;2022-12-07T00:30:11;100574.88;;;3.30;100.00
13348;BME280;6743;49.934;9.138;2022-12-07T00:32:37;100567.00;;;3.30;100.00
13348;BME280;6743;49.934;9.138;2022-12-07T00:35:04;100573.19;;;3.29;100.00
13348;BME280;6743;49.934;9.138;2022-12-07T00:37:31;100567.00;;;3.30;100.00
13348;BME280;6743;49.934;9.138;2022-12-07T00:39:57;100561.75;;;3.30;100.00
13348;BME280;6743;49.934;9.138;2022-12-07T00:42:23;100556.50;;;3.30;100.00
13348;BME280;6743;49.934;9.138;2022-12-07T00:44:49;100558.41;;;3.28;100.00
13348;BME280;6743;49.934;9.138;2022-12-07T00:47:15;100543.72;;;3.25;100.00
13348;BME280;6743;49.934;9.138;2022-12-07T00:49:41;100554.34;;;3.24;100.00
13348;BME280;6743;49.934;9.138;2022-12-07T00:52:07;100559.59;;;3.24;100.00
13348;BME280;6743;49.934;9.138;2022-12-07T00:54:33;100563.03;;;3.24;100.00
13348;BME280;6743;49.934;9.138;2022-12-07T00:56:59;100566.59;;;3.23;100.00
13348;BME280;6743;49.934;9.138;2022-12-07T00:59:25;100563.88;;;3.25;100.00
13348;BME280;6743;49.934;9.138;2022-12-07T01:01:51;100569.94;;;3.25;100.00
13348;BME280;6743;49.934;9.138;2022-12-07T01:04:17;100564.69;;;3.25;100.00
13348;BME280;6743;49.934;9.138;2022-12-07T01:06:43;100558.63;;;3.25;100.00
13348;BME280;6743;49.934;9.138;2022-12-07T01:09:09;100554.34;;;3.24;100.00
13348;BME280;6743;49.934;9.138;2022-12-07T01:11:36;100556.81;;;3.25;100.00
13348;BME280;6743;49.934;9.138;2022-12-07T01:14:02;100553.41;;;3.25;100.00
13348;BME280;6743;49.934;9.138;2022-12-07T01:16:30;100554.19;;;3.25;100.00
13348;BME280;6743;49.934;9.138;2022-12-07T01:18:58;100558.41;;;3.28;100.00
13348;BME280;6743;49.934;9.138;2022-12-07T01:21:26;100552.41;;;3.26;100.00
13348;BME280;6743;49.934;9.138;2022-12-07T01:23:53;100553.25;;;3.26;100.00
13348;BME280;6743;49.934;9.138;2022-12-07T01:26:23;100549.69;;;3.27;100.00
13348;BME280;6743;49.934;9.138;2022-12-07T01:28:50;100551.38;;;3.28;100.00
13348;BME280;6743;49.934;9.138;2022-12-07T01:31:18;100555.69;;;3.29;100.00
13348;BME280;6743;49.934;9.138;2022-12-07T01:33:47;100557.34;;;3.30;100.00
13348;BME280;6743;49.934;9.138;2022-12-07T01:36:15;100552.09;;;3.30;100.00
13348;BME280;6743;49.934;9.138;2022-12-07T01:38:42;100549.50;;;3.30;100.00
13348;BME280;6743;49.934;9.138;2022-12-07T01:41:08;100552.94;;;3.31;100.00
13348;BME280;6743;49.934;9.138;2022-12-07T01:43:34;100530.00;;;3.22;100.00
13348;BME280;6743;49.934;9.138;2022-12-07T01:46:02;100550.09;;;3.34;100.00
13348;BME280;6743;49.934;9.138;2022-12-07T01:48:31;100547.47;;;3.34;100.00
13348;BME280;6743;49.934;9.138;2022-12-07T01:51:01;100547.47;;;3.34;100.00
13348;BME280;6743;49.934;9.138;2022-12-07T01:53:30;100533.38;;;3.24;100.00
13348;BME280;6743;49.934;9.138;2022-12-07T01:55:57;100550.94;;;3.34;100.00
13348;BME280;6743;49.934;9.138;2022-12-07T01:58:25;100545.19;;;3.29;100.00
13348;BME280;6743;49.934;9.138;2022-12-07T02:00:51;100542.13;;;3.35;100.00
13348;BME280;6743;49.934;9.138;2022-12-07T02:03:31;100540.78;;;3.30;100.00
13348;BME280;6743;49.934;9.138;2022-12-07T02:05:58;100551.66;;;3.36;100.00
13348;BME280;6743;49.934;9.138;2022-12-07T02:08:25;100544.53;;;3.38;100.00
13348;BME280;6743;49.934;9.138;2022-12-07T02:10:52;100535.81;;;3.38;100.00
13348;BME280;6743;49.934;9.138;2022-12-07T02:13:21;100538.44;;;3.38;100.00
13348;BME280;6743;49.934;9.138;2022-12-07T02:16:08;100540.12;;;3.39;100.00
13348;BME280;6743;49.934;9.138;2022-12-07T02:18:52;100544.38;;;3.40;100.00
13348;BME280;6743;49.934;9.138;2022-12-07T02:21:27;100543.56;;;3.39;100.00
13348;BME280;6743;49.934;9.138;2022-12-07T02:24:15;100527.00;;;3.39;100.00
13348;BME280;6743;49.934;9.138;2022-12-07T02:27:11;100517.31;;;3.39;100.00
13348;BME280;6743;49.934;9.138;2022-12-07T02:29:49;100520.78;;;3.40;100.00
13348;BME280;6743;49.934;9.138;2022-12-07T02:32:20;100510.28;;;3.40;100.00
13348;BME280;6743;49.934;9.138;2022-12-07T02:34:51;100502.56;;;3.38;100.00
13348;BME280;6743;49.934;9.138;2022-12-07T02:37:25;100491.06;;;3.28;100.00
13348;BME280;6743;49.934;9.138;2022-12-07T02:39:57;100513.06;;;3.38;100.00
13348;BME280;6743;49.934;9.138;2022-12-07T02:42:30;100513.91;;;3.39;100.00
13348;BME280;6743;49.934;9.138;2022-12-07T02:44:59;100506.03;;;3.39;100.00
13348;BME280;6743;49.934;9.138;2022-12-07T02:47:26;100518.16;;;3.40;100.00
13348;BME280;6743;49.934;9.138;2022-12-07T02:49:53;100514.69;;;3.39;100.00
13348;BME280;6743;49.934;9.138;2022-12-07T02:52:19;100514.69;;;3.39;100.00
13348;BME280;6743;49.934;9.138;2022-12-07T02:54:45;100506.34;;;3.34;100.00
13348;BME280;6743;49.934;9.138;2022-12-07T02:57:22;100512.09;;;3.39;100.00
13348;BME280;6743;49.934;9.138;2022-12-07T03:00:01;100499.22;;;3.36;100.00
13348;BME280;6743;49.934;9.138;2022-12-07T03:02:38;100499.09;;;3.38;100.00
13348;BME280;6743;49.934;9.138;2022-12-07T03:05:25;100491.25;;;3.38;100.00
13348;BME280;6743;49.934;9.138;2022-12-07T03:07:59;100492.06;;;3.38;100.00
13348;BME280;6743;49.934;9.138;2022-12-07T03:10:34;100491.25;;;3.38;100.00
13348;BME280;6743;49.934;9.138;2022-12-07T03:13:06;100479.62;;;3.29;100.00
13348;BME280;6743;49.934;9.138;2022-12-07T03:15:41;100488.47;;;3.39;100.00
13348;BME280;6743;49.934;9.138;2022-12-07T03:18:09;100484.63;;;3.32;100.00
13348;BME280;6743;49.934;9.138;2022-12-07T03:20:37;100490.16;;;3.40;100.00
13348;BME280;6743;49.934;9.138;2022-12-07T03:23:06;100493.63;;;3.41;100.00
13348;BME280;6743;49.934;9.138;2022-12-07T03:25:35;100487.44;;;3.42;100.00
13348;BME280;6743;49.934;9.138;2022-12-07T03:28:05;100493.50;;;3.42;100.00
13348;BME280;6743;49.934;9.138;2022-12-07T03:30:39;100498.75;;;3.42;100.00
13348;BME280;6743;49.934;9.138;2022-12-07T03:33:11;100493.50;;;3.42;100.00
13348;BME280;6743;49.934;9.138;2022-12-07T03:35:43;100490.06;;;3.42;100.00
13348;BME280;6743;49.934;9.138;2022-12-07T03:38:15;100491.84;;;3.41;100.00
13348;BME280;6743;49.934;9.138;2022-12-07T03:40:47;100491.72;;;3.43;100.00
13348;BME280;6743;49.934;9.138;2022-12-07T03:43:15;100489.94;;;3.43;100.00
13348;BME280;6743;49.934;9.138;2022-12-07T03:45:45;100484.59;;;3.45;100.00
13348;BME280;6743;49.934;9.138;2022-12-07T03:48:22;100486.25;;;3.46;100.00
13348;BME280;6743;49.934;9.138;2022-12-07T03:50:53;100491.47;;;3.46;100.00
13348;BME280;6743;49.934;9.138;2022-12-07T03:53:25;100475.38;;;3.39;100.00
13348;BME280;6743;49.934;9.138;2022-12-07T03:55:55;100486.25;;;3.46;100.00
13348;BME280;6743;49.934;9.138;2022-12-07T03:58:23;100489.69;;;3.46;100.00
13348;BME280;6743;49.934;9.138;2022-12-07T04:00:50;100481.72;;;3.48;100.00
13348;BME280;6743;49.934;9.138;2022-12-07T04:03:17;100482.56;;;3.48;100.00
13348;BME280;6743;49.934;9.138;2022-12-07T04:05:43;100482.56;;;3.48;100.00
13348;BME280;6743;49.934;9.138;2022-12-07T04:08:10;100483.41;;;3.49;100.00
13348;BME280;6743;49.934;9.138;2022-12-07T04:10:36;100477.22;;;3.50;100.00
13348;BME280;6743;49.934;9.138;2022-12-07T04:13:02;100481.63;;;3.49;100.00
13348;BME280;6743;49.934;9.138;2022-12-07T04:15:28;100486.03;;;3.49;100.00
13348;BME280;6743;49.934;9.138;2022-12-07T04:17:54;100479.84;;;3.50;100.00
13348;BME280;6743;49.934;9.138;2022-12-07T04:20:21;100473.66;;;3.51;100.00
13348;BME280;6743;49.934;9.138;2022-12-07T04:22:47;100472.81;;;3.50;100.00
13348;BME280;6743;49.934;9.138;2022-12-07T04:25:13;100463.16;;;3.51;100.00
13348;BME280;6743;49.934;9.138;2022-12-07T04:27:39;100466.63;;;3.51;100.00
13348;BME280;6743;49.934;9.138;2022-12-07T04:30:07;100469.25;;;3.51;100.00
13348;BME280;6743;49.934;9.138;2022-12-07T04:32:33;100476.97;;;3.53;100.00
13348;BME280;6743;49.934;9.138;2022-12-07T04:34:59;100469.94;;;3.53;100.00
13348;BME280;6743;49.934;9.138;2022-12-07T04:37:25;100473.41;;;3.54;100.00
13348;BME280;6743;49.934;9.138;2022-12-07T04:39:52;100471.03;;;3.51;100.00
13348;BME280;6743;49.934;9.138;2022-12-07T04:42:18;100473.41;;;3.54;100.00
13348;BME280;6743;49.934;9.138;2022-12-07T04:44:44;100458.38;;;3.45;100.00
13348;BME280;6743;49.934;9.138;2022-12-07T04:47:10;100476.03;;;3.54;100.00
13348;BME280;6743;49.934;9.138;2022-12-07T04:49:36;100472.56;;;3.53;100.00
13348;BME280;6743;49.934;9.138;2022-12-07T04:52:02;100470.78;;;3.54;100.00
13348;BME280;6743;49.934;9.138;2022-12-07T04:54:28;100467.09;;;3.56;100.00
13348;BME280;6743;49.934;9.138;2022-12-07T04:56:54;100466.16;;;3.58;100.00
13348;BME280;6743;49.934;9.138;2022-12-07T04:59:20;100467.09;;;3.56;100.00
13348;BME280;6743;49.934;9.138;2022-12-07T05:01:46;100473.53;;;3.52;100.00
13348;BME280;6743;49.934;9.138;2022-12-07T05:04:12;100474.59;;;3.50;100.00
13348;BME280;6743;49.934;9.138;2022-12-07T05:06:39;100473.84;;;3.48;100.00
13348;BME280;6743;49.934;9.138;2022-12-07T05:09:06;100472.81;;;3.50;100.00
13348;BME280;6743;49.934;9.138;2022-12-07T05:11:31;100478.78;;;3.52;100.00
13348;BME280;6743;49.934;9.138;2022-12-07T05:14:05;100468.16;;;3.54;100.00
13348;BME280;6743;49.934;9.138;2022-12-07T05:16:32;100459.91;;;3.47;100.00
13348;BME280;6743;49.934;9.138;2022-12-07T05:18:58;100470.66;;;3.55;100.00
13348;BME280;6743;49.934;9.138;2022-12-07T05:21:24;100453.59;;;3.50;100.00
13348;BME280;6743;49.934;9.138;2022-12-07T05:23:51;100461.75;;;3.58;100.00
13348;BME280;6743;49.934;9.138;2022-12-07T05:26:18;100472.44;;;3.55;100.00
13348;BME280;6743;49.934;9.138;2022-12-07T05:28:44;100467.31;;;3.53;100.00
13348;BME280;6743;49.934;9.138;2022-12-07T05:31:10;100478.53;;;3.55;100.00
13348;BME280;6743;49.934;9.138;2022-12-07T05:33:36;100469.72;;;3.56;100.00
13348;BME280;6743;49.934;9.138;2022-12-07T05:36:02;100462.22;;;3.52;100.00
13348;BME280;6743;49.934;9.138;2022-12-07T05:38:31;100467.00;;;3.58;100.00
13348;BME280;6743;49.934;9.138;2022-12-07T05:41:00;100468.66;;;3.59;100.00
13348;BME280;6743;49.934;9.138;2022-12-07T05:43:27;100468.41;;;3.62;100.00
13348;BME280;6743;49.934;9.138;2022-12-07T05:45:53;100464.00;;;3.63;100.00
13348;BME280;6743;49.934;9.138;2022-12-07T05:48:20;100466.63;;;3.63;100.00
13348;BME280;6743;49.934;9.138;2022-12-07T05:50:47;100465.69;;;3.64;100.00
13348;BME280;6743;49.934;9.138;2022-12-07T05:53:13;100463.91;;;3.64;100.00
13348;BME280;6743;49.934;9.138;2022-12-07T05:55:39;100474.41;;;3.64;100.00
13348;BME280;6743;49.934;9.138;2022-12-07T05:58:05;100472.59;;;3.65;100.00
13348;BME280;6743;49.934;9.138;2022-12-07T06:00:50;100476.06;;;3.65;100.00
13348;BME280;6743;49.934;9.138;2022-12-07T06:03:16;100459.97;;;3.59;100.00
13348;BME280;6743;49.934;9.138;2022-12-07T06:05:42;100479.53;;;3.66;100.00
13348;BME280;6743;49.934;9.138;2022-12-07T06:08:08;100476.91;;;3.66;100.00
13348;BME280;6743;49.934;9.138;2022-12-07T06:10:34;100474.03;;;3.69;100.00
13348;BME280;6743;49.934;9.138;2022-12-07T06:13:00;100467.94;;;3.68;100.00
13348;BME280;6743;49.934;9.138;2022-12-07T06:15:26;100461.75;;;3.69;100.00
13348;BME280;6743;49.934;9.138;2022-12-07T06:17:53;100465.22;;;3.70;100.00
13348;BME280;6743;49.934;9.138;2022-12-07T06:20:19;100456.50;;;3.69;100.00
13348;BME280;6743;49.934;9.138;2022-12-07T06:22:45;100440.41;;;3.63;100.00
13348;BME280;6743;49.934;9.138;2022-12-07T06:25:11;100465.09;;;3.71;100.00
13348;BME280;6743;49.934;9.138;2022-12-07T06:27:37;100468.56;;;3.72;100.00
13348;BME280;6743;49.934;9.138;2022-12-07T06:30:04;100472.16;;;3.71;100.00
13348;BME280;6743;49.934;9.138;2022-12-07T06:32:32;100479.06;;;3.72;100.00
13348;BME280;6743;49.934;9.138;2022-12-07T06:34:59;100465.94;;;3.72;100.00
13348;BME280;6743;49.934;9.138;2022-12-07T06:37:25;100469.41;;;3.72;100.00
13348;BME280;6743;49.934;9.138;2022-12-07T06:39:51;100472.88;;;3.73;100.00
13348;BME280;6743;49.934;9.138;2022-12-07T06:42:17;100473.81;;;3.72;100.00
13348;BME280;6743;49.934;9.138;2022-12-07T06:44:43;100482.53;;;3.72;100.00
13348;BME280;6743;49.934;9.138;2022-12-07T06:47:09;100481.59;;;3.73;100.00
13348;BME280;6743;49.934;9.138;2022-12-07T06:49:35;100480.50;;;3.76;100.00
13348;BME280;6743;49.934;9.138;2022-12-07T06:52:02;100476.94;;;3.77;100.00
13348;BME280;6743;49.934;9.138;2022-12-07T06:54:30;100483.00;;;3.77;100.00
13348;BME280;6743;49.934;9.138;2022-12-07T06:56:56;100476.94;;;3.77;100.00
13348;BME280;6743;49.934;9.138;2022-12-07T06:59:22;100472.41;;;3.79;100.00
13348;BME280;6743;49.934;9.138;2022-12-07T07:01:48;100478.50;;;3.79;100.00
13348;BME280;6743;49.934;9.138;2022-12-07T07:04:14;100481.13;;;3.79;100.00
13348;BME280;6743;49.934;9.138;2022-12-07T07:06:40;100475.72;;;3.81;100.00
13348;BME280;6743;49.934;9.138;2022-12-07T07:09:07;100487.19;;;3.80;100.00
13348;BME280;6743;49.934;9.138;2022-12-07T07:11:35;100476.09;;;3.76;100.00
13348;BME280;6743;49.934;9.138;2022-12-07T07:14:01;100480.97;;;3.81;100.00
13348;BME280;6743;49.934;9.138;2022-12-07T07:16:28;100486.94;;;3.83;100.00
13348;BME280;6743;49.934;9.138;2022-12-07T07:18:54;100483.38;;;3.84;100.00
13348;BME280;6743;49.934;9.138;2022-12-07T07:21:20;100489.47;;;3.84;100.00
13348;BME280;6743;49.934;9.138;2022-12-07T07:23:46;100485.06;;;3.85;100.00
13348;BME280;6743;49.934;9.138;2022-12-07T07:26:13;100486.84;;;3.84;100.00
13348;BME280;6743;49.934;9.138;2022-12-07T07:28:39;100499.97;;;3.84;100.00
13348;BME280;6743;49.934;9.138;2022-12-07T07:31:05;100493.03;;;3.83;100.00
13348;BME280;6743;49.934;9.138;2022-12-07T07:33:31;100494.72;;;3.84;100.00
13348;BME280;6743;49.934;9.138;2022-12-07T07:35:57;100494.59;;;3.86;100.00
13348;BME280;6743;49.934;9.138;2022-12-07T07:38:23;100496.41;;;3.85;100.00
13348;BME280;6743;49.934;9.138;2022-12-07T07:40:50;100499.84;;;3.86;100.00
13348;BME280;6743;49.934;9.138;2022-12-07T07:43:17;100493.25;;;3.80;100.00
13348;BME280;6743;49.934;9.138;2022-12-07T07:45:44;100499.13;;;3.84;100.00
13348;BME280;6743;49.934;9.138;2022-12-07T07:48:11;100497.34;;;3.84;100.00
13348;BME280;6743;49.934;9.138;2022-12-07T07:50:38;100492.19;;;3.83;100.00
13348;BME280;6743;49.934;9.138;2022-12-07T07:53:05;100489.56;;;3.83;100.00
13348;BME280;6743;49.934;9.138;2022-12-07T07:55:32;100497.09;;;3.87;100.00
13348;BME280;6743;49.934;9.138;2022-12-07T07:57:58;100502.34;;;3.87;100.00
13348;BME280;6743;49.934;9.138;2022-12-07T08:00:25;100504.97;;;3.87;100.00
13348;BME280;6743;49.934;9.138;2022-12-07T08:02:51;100489.09;;;3.78;100.00
13348;BME280;6743;49.934;9.138;2022-12-07T08:05:18;100499.84;;;3.86;100.00
13348;BME280;6743;49.934;9.138;2022-12-07T08:07:45;100505.94;;;3.86;100.00
13348;BME280;6743;49.934;9.138;2022-12-07T08:10:13;100502.22;;;3.89;100.00
13348;BME280;6743;49.934;9.138;2022-12-07T08:12:41;100504.75;;;3.90;100.00
13348;BME280;6743;49.934;9.138;2022-12-07T08:15:22;100495.09;;;3.91;100.00
13348;BME280;6743;49.934;9.138;2022-12-07T08:17:49;100500.34;;;3.91;100.00
13348;BME280;6743;49.934;9.138;2022-12-07T08:20:15;100506.31;;;3.93;100.00
13348;BME280;6743;49.934;9.138;2022-12-07T08:22:41;100501.06;;;3.93;100.00
13348;BME280;6743;49.934;9.138;2022-12-07T08:25:08;100500.12;;;3.94;100.00
13348;BME280;6743;49.934;9.138;2022-12-07T08:27:34;100496.50;;;3.95;100.00
13348;BME280;6743;49.934;9.138;2022-12-07T08:30:00;100501.53;;;3.98;100.00
13348;BME280;6743;49.934;9.138;2022-12-07T08:32:27;100488.06;;;3.91;100.00
13348;BME280;6743;49.934;9.138;2022-12-07T08:34:54;100508.47;;;3.99;100.00
13348;BME280;6743;49.934;9.138;2022-12-07T08:37:20;100513.62;;;4.01;100.00
13348;BME280;6743;49.934;9.138;2022-12-07T08:39:46;100512.53;;;4.03;100.00
13348;BME280;6743;49.934;9.138;2022-12-07T08:42:12;100507.28;;;4.03;100.00
13348;BME280;6743;49.934;9.138;2022-12-07T08:44:38;100515.03;;;4.05;100.00
13348;BME280;6743;49.934;9.138;2022-12-07T08:47:06;100514.94;;;4.06;100.00
13348;BME280;6743;49.934;9.138;2022-12-07T08:49:36;100509.56;;;4.08;100.00
13348;BME280;6743;49.934;9.138;2022-12-07T08:52:06;100511.09;;;4.10;100.00
13348;BME280;6743;49.934;9.138;2022-12-07T08:54:33;100507.41;;;4.13;100.00
13348;BME280;6743;49.934;9.138;2022-12-07T08:57:03;100496.66;;;4.16;100.00
13348;BME280;6743;49.934;9.138;2022-12-07T08:59:32;100500.97;;;4.17;100.00
13348;BME280;6743;49.934;9.138;2022-12-07T09:01:59;100504.44;;;4.17;100.00
13348;BME280;6743;49.934;9.138;2022-12-07T09:04:25;100520.66;;;4.22;100.00
13348;BME280;6743;49.934;9.138;2022-12-07T09:06:52;100515.41;;;4.22;100.00
13348;BME280;6743;49.934;9.138;2022-12-07T09:09:19;100515.19;;;4.25;100.00
13348;BME280;6743;49.934;9.138;2022-12-07T09:11:45;100513.50;;;4.24;100.00
13348;BME280;6743;49.934;9.138;2022-12-07T09:14:11;100515.06;;;4.27;100.00
13348;BME280;6743;49.934;9.138;2022-12-07T09:16:38;100495.38;;;4.21;100.00
13348;BME280;6743;49.934;9.138;2022-12-07T09:19:04;100512.19;;;4.30;100.00
13348;BME280;6743;49.934;9.138;2022-12-07T09:21:30;100501.22;;;4.25;100.00
13348;BME280;6743;49.934;9.138;2022-12-07T09:23:56;100512.81;;;4.33;100.00
13348;BME280;6743;49.934;9.138;2022-12-07T09:26:23;100519.75;;;4.34;100.00
13348;BME280;6743;49.934;9.138;2022-12-07T09:28:49;100522.22;;;4.36;100.00
13348;BME280;6743;49.934;9.138;2022-12-07T09:31:17;100510.50;;;4.29;100.00
13348;BME280;6743;49.934;9.138;2022-12-07T09:33:45;100514.25;;;4.26;100.00
13348;BME280;6743;49.934;9.138;2022-12-07T09:36:12;100522.09;;;4.37;100.00
13348;BME280;6743;49.934;9.138;2022-12-07T09:38:39;100527.38;;;4.37;100.00
13348;BME280;6743;49.934;9.138;2022-12-07T09:41:07;100522.00;;;4.39;100.00
13348;BME280;6743;49.934;9.138;2022-12-07T09:43:35;100512.31;;;4.40;100.00
13348;BME280;6743;49.934;9.138;2022-12-07T09:46:02;100510.44;;;4.42;100.00
13348;BME280;6743;49.934;9.138;2022-12-07T09:48:30;100512.78;;;4.45;100.00
13348;BME280;6743;49.934;9.138;2022-12-07T09:50:58;100507.31;;;4.48;100.00
13348;BME280;6743;49.934;9.138;2022-12-07T09:53:27;100506.38;;;4.49;100.00
13348;BME280;6743;49.934;9.138;2022-12-07T09:55:54;100505.37;;;4.50;100.00
13348;BME280;6743;49.934;9.138;2022-12-07T09:58:22;100505.37;;;4.50;100.00
13348;BME280;6743;49.934;9.138;2022-12-07T10:00:50;100512.56;;;4.48;100.00
13348;BME280;6743;49.934;9.138;2022-12-07T10:03:18;100503.12;;;4.45;100.00
13348;BME280;6743;49.934;9.138;2022-12-07T10:05:48;100510.78;;;4.48;100.00
13348;BME280;6743;49.934;9.138;2022-12-07T10:08:16;100507.31;;;4.48;100.00
13348;BME280;6743;49.934;9.138;2022-12-07T10:10:44;100504.69;;;4.48;100.00
13348;BME280;6743;49.934;9.138;2022-12-07T10:13:11;100506.38;;;4.49;100.00
13348;BME280;6743;49.934;9.138;2022-12-07T10:15:43;100503.84;;;4.47;100.00
13348;BME280;6743;49.934;9.138;2022-12-07T10:18:28;100496.09;;;4.46;100.00
13348;BME280;6743;49.934;9.138;2022-12-07T10:21:10;100495.97;;;4.47;100.00
13348;BME280;6743;49.934;9.138;2022-12-07T10:23:38;100491.56;;;4.48;100.00
13348;BME280;6743;49.934;9.138;2022-12-07T10:26:20;100499.31;;;4.49;100.00
13348;BME280;6743;49.934;9.138;2022-12-07T10:28:47;100497.50;;;4.50;100.00
13348;BME280;6743;49.934;9.138;2022-12-07T10:31:16;100490.59;;;4.49;100.00
13348;BME280;6743;49.934;9.138;2022-12-07T10:33:49;100461.34;;;4.31;100.00
13348;BME280;6743;49.934;9.138;2022-12-07T10:36:19;100483.69;;;4.48;100.00
13348;BME280;6743;49.934;9.138;2022-12-07T10:38:47;100480.09;;;4.49;100.00
13348;BME280;6743;49.934;9.138;2022-12-07T10:41:13;100485.94;;;4.52;100.00
13348;BME280;6743;49.934;9.138;2022-12-07T10:43:47;100479.25;;;4.59;100.00
13348;BME280;6743;49.934;9.138;2022-12-07T10:49:30;100482.44;;;4.74;100.00
13348;BME280;6743;49.934;9.138;2022-12-07T10:52:09;100475.97;;;4.78;100.00
13348;BME280;6743;49.934;9.138;2022-12-07T10:54:46;100461.31;;;4.75;100.00
13348;BME280;6743;49.934;9.138;2022-12-07T10:57:27;100468.59;;;4.83;100.00
13348;BME280;6743;49.934;9.138;2022-12-07T11:00:04;100462.34;;;4.84;100.00
13348;BME280;6743;49.934;9.138;2022-12-07T11:05:36;100462.94;;;4.88;100.00
13348;BME280;6743;49.934;9.138;2022-12-07T11:08:13;100457.56;;;4.89;100.00
13348;BME280;6743;49.934;9.138;2022-12-07T11:10:49;100453.28;;;4.88;100.00
13348;BME280;6743;49.934;9.138;2022-12-07T11:13:24;100451.47;;;4.89;100.00
13348;BME280;6743;49.934;9.138;2022-12-07T11:16:07;100453.16;;;4.90;100.00
13348;BME280;6743;49.934;9.138;2022-12-07T11:18:44;100438.22;;;4.90;100.00
13348;BME280;6743;49.934;9.138;2022-12-07T11:21:23;100438.22;;;4.90;100.00
13348;BME280;6743;49.934;9.138;2022-12-07T11:24:01;100449.56;;;4.91;100.00
13348;BME280;6743;49.934;9.138;2022-12-07T11:26:47;100436.44;;;4.91;100.00
13348;BME280;6743;49.934;9.138;2022-12-07T11:29:41;100434.59;;;4.91;100.00
13348;BME280;6743;49.934;9.138;2022-12-07T11:32:15;100432.81;;;4.92;100.00
13348;BME280;6743;49.934;9.138;2022-12-07T11:34:53;100435.31;;;4.93;100.00
13348;BME280;6743;49.934;9.138;2022-12-07T11:37:30;100434.25;;;4.96;100.00
13348;BME280;6743;49.934;9.138;2022-12-07T11:40:02;100425.66;;;4.94;100.00
13348;BME280;6743;49.934;9.138;2022-12-07T11:42:33;100432.06;;;5.01;100.00
13348;BME280;6743;49.934;9.138;2022-12-07T11:45:10;100425.75;;;5.03;100.00
13348;BME280;6743;49.934;9.138;2022-12-07T11:47:45;100416.06;;;5.04;100.00
13348;BME280;6743;49.934;9.138;2022-12-07T11:50:24;100399.47;;;4.92;100.00
13348;BME280;6743;49.934;9.138;2022-12-07T11:52:55;100425.75;;;5.03;100.00
13348;BME280;6743;49.934;9.138;2022-12-07T11:55:27;100414.94;;;5.06;100.00
13348;BME280;6743;49.934;9.138;2022-12-07T11:58:01;100418.19;;;5.10;100.00
13348;BME280;6743;49.934;9.138;2022-12-07T12:00:29;100413.75;;;5.10;100.00
13348;BME280;6743;49.934;9.138;2022-12-07T12:02:59;100418.88;;;5.12;100.00
13348;BME280;6743;49.934;9.138;2022-12-07T12:05:27;100413.50;;;5.13;100.00
13348;BME280;6743;49.934;9.138;2022-12-07T12:08:01;100412.41;;;5.16;100.00
13348;BME280;6743;49.934;9.138;2022-12-07T12:10:37;100406.09;;;5.19;100.00
13348;BME280;6743;49.934;9.138;2022-12-07T12:13:25;100398.88;;;5.21;100.00
13348;BME280;6743;49.934;9.138;2022-12-07T12:16:13;100402.09;;;5.24;100.00
13348;BME280;6743;49.934;9.138;2022-12-07T12:19:11;100391.19;;;5.29;100.00
13348;BME280;6743;49.934;9.138;2022-12-07T12:21:42;100395.22;;;5.33;100.00
13348;BME280;6743;49.934;9.138;2022-12-07T12:24:11;100386.66;;;5.31;100.00
13348;BME280;6743;49.934;9.138;2022-12-07T12:26:49;100384.56;;;5.34;100.00
13348;BME280;6743;49.934;9.138;2022-12-07T12:29:21;100384.34;;;5.37;100.00
13348;BME280;6743;49.934;9.138;2022-12-07T12:32:06;100384.22;;;5.39;100.00
13348;BME280;6743;49.934;9.138;2022-12-07T12:34:39;100382.25;;;5.41;100.00
13348;BME280;6743;49.934;9.138;2022-12-07T12:37:40;100385.72;;;5.41;100.00
13348;BME280;6743;49.934;9.138;2022-12-07T12:40:43;100376.88;;;5.42;100.00
13348;BME280;6743;49.934;9.138;2022-12-07T12:43:48;100374.25;;;5.42;100.00
13348;BME280;6743;49.934;9.138;2022-12-07T12:46:48;100376.03;;;5.42;100.00
13348;BME280;6743;49.934;9.138;2022-12-07T12:49:36;100369.00;;;5.42;100.00
13348;BME280;6743;49.934;9.138;2022-12-07T12:52:46;100372.56;;;5.41;100.00
13348;BME280;6743;49.934;9.138;2022-12-07T12:55:17;100373.69;;;5.39;100.00
13348;BME280;6743;49.934;9.138;2022-12-07T12:57:52;100370.47;;;5.35;100.00
13348;BME280;6743;49.934;9.138;2022-12-07T13:00:39;100373.09;;;5.35;100.00
13348;BME280;6743;49.934;9.138;2022-12-07T13:03:22;100361.84;;;5.33;100.00
13348;BME280;6743;49.934;9.138;2022-12-07T13:06:19;100360.25;;;5.42;100.00
13348;BME280;6743;49.934;9.138;2022-12-07T13:08:46;100360.03;;;5.45;100.00
13348;BME280;6743;49.934;9.138;2022-12-07T13:11:24;100356.28;;;5.47;100.00
13348;BME280;6743;49.934;9.138;2022-12-07T13:16:59;100358.38;;;5.53;100.00
13348;BME280;6743;49.934;9.138;2022-12-07T13:19:59;100342.28;;;5.47;100.00
13348;BME280;6743;49.934;9.138;2022-12-07T13:22:51;100355.63;;;5.55;100.00
13348;BME280;6743;49.934;9.138;2022-12-07T13:25:31;100343.91;;;5.59;100.00